Time;durP1;ratioP1;P1;durP2;ratioP2;P2;SDS_P1;SDS_P2;PMS_P1;PMS_P2;Temp;Humidity;BMP_temperature;BMP_pressure;BME280_temperature;BME280_humidity;BME280_pressure;Samples;Min_cycle;Max_cycle;Signal;HPM_P1;HPM_P2
2023/01/26 00:02:23;;;;;;;1.20;1.17;;;;;;;-0.76;100.00;100116.19;5110246;28;20202;-58
2023/01/26 00:04:51;;;;;;;1.23;0.77;;;;;;;-0.78;100.00;100130.44;5109622;28;20221;-59
2023/01/26 00:07:18;;;;;;;0.57;0.53;;;;;;;-0.86;100.00;100119.63;5110120;28;20220;-58
2023/01/26 00:09:45;;;;;;;0.50;0.50;;;;;;;-0.86;100.00;100119.63;5109747;28;20229;-59
2023/01/26 00:12:12;;;;;;;1.70;1.17;;;;;;;-0.78;100.00;100127.94;5109630;28;20204;-59
2023/01/26 00:14:51;;;;;;;1.30;1.20;;;;;;;-0.61;100.00;100129.44;5110208;28;20217;-59
2023/01/26 00:17:25;;;;;;;0.60;0.60;;;;;;;-0.78;100.00;100122.91;5109970;28;20193;-58
2023/01/26 00:19:56;;;;;;;4.73;2.23;;;;;;;-0.78;100.00;100099.50;5109673;28;20273;-59
2023/01/26 00:22:24;;;;;;;2.00;1.20;;;;;;;-0.75;100.00;100107.81;5109754;28;20186;-58
2023/01/26 00:24:51;;;;;;;1.80;0.73;;;;;;;-0.75;100.00;100110.31;5110213;28;20228;-57
2023/01/26 00:27:18;;;;;;;2.20;0.87;;;;;;;-0.80;100.00;100104.50;5113285;28;20197;-58
2023/01/26 00:29:45;;;;;;;1.73;1.30;;;;;;;-0.79;100.00;100092.78;5113276;28;20237;-58
2023/01/26 00:32:12;;;;;;;7.37;1.70;;;;;;;-0.74;100.00;100098.59;5113271;28;20201;-59
2023/01/26 00:34:39;;;;;;;2.43;1.47;;;;;;;-0.82;100.00;100091.13;5113862;28;20561;-59
2023/01/26 00:37:07;;;;;;;0.70;0.70;;;;;;;-0.79;100.00;100088.59;5113159;28;20203;-58
2023/01/26 00:39:34;;;;;;;0.77;0.77;;;;;;;-0.76;100.00;100081.03;5113219;28;20221;-59
2023/01/26 00:42:08;;;;;;;1.47;1.33;;;;;;;-0.75;100.00;100087.72;5113358;28;20216;-59
2023/01/26 00:44:37;;;;;;;1.43;0.50;;;;;;;-0.75;100.00;100081.88;5113528;28;20618;-59
2023/01/26 00:47:04;;;;;;;2.80;2.27;;;;;;;-0.77;100.00;100069.31;5112856;28;20246;-58
2023/01/26 00:49:31;;;;;;;2.40;1.80;;;;;;;-0.77;100.00;100064.31;5113127;28;20713;-57
2023/01/26 00:51:58;;;;;;;1.37;0.93;;;;;;;-0.77;100.00;100064.31;5112814;28;20203;-58
2023/01/26 00:54:27;;;;;;;0.37;0.37;;;;;;;-0.68;100.00;100064.19;5113238;28;20213;-59
2023/01/26 00:56:55;;;;;;;2.07;1.43;;;;;;;-0.75;100.00;100060.09;5112650;28;20193;-59
2023/01/26 00:59:22;;;;;;;2.30;2.10;;;;;;;-0.64;100.00;100064.16;5113049;28;20217;-59
2023/01/26 01:01:49;;;;;;;1.80;1.23;;;;;;;-0.76;100.00;100055.91;5112824;28;20200;-59
2023/01/26 01:04:16;;;;;;;1.47;1.40;;;;;;;-0.71;100.00;100054.19;5112944;28;20217;-59
2023/01/26 01:06:43;;;;;;;1.23;1.20;;;;;;;-0.74;100.00;100044.19;5112568;28;20197;-59
2023/01/26 01:09:10;;;;;;;0.57;0.57;;;;;;;-0.94;100.00;100046.06;5112737;28;20225;-57
2023/01/26 01:11:41;;;;;;;0.63;0.63;;;;;;;-0.97;100.00;100046.09;5112684;28;20197;-59
2023/01/26 01:14:08;;;;;;;1.13;1.07;;;;;;;-0.93;100.00;100032.69;5112907;28;20232;-58
2023/01/26 01:16:35;;;;;;;2.63;2.43;;;;;;;-0.94;100.00;100029.31;5112617;28;20202;-58
2023/01/26 01:19:02;;;;;;;1.53;1.43;;;;;;;-0.95;100.00;100029.34;5112175;28;20221;-58
2023/01/26 01:21:30;;;;;;;0.43;0.43;;;;;;;-0.82;100.00;100035.06;5112225;28;20595;-59
2023/01/26 01:23:57;;;;;;;1.07;1.03;;;;;;;-0.91;100.00;100033.47;5112136;28;20264;-59
2023/01/26 01:26:24;;;;;;;1.13;1.03;;;;;;;-0.83;100.00;100034.25;5112187;28;20197;-58
2023/01/26 01:28:56;;;;;;;1.20;1.17;;;;;;;-0.66;100.00;100049.13;5112495;28;20217;-59
2023/01/26 01:31:24;;;;;;;0.97;0.90;;;;;;;-0.80;100.00;100039.22;5112441;28;20642;-59
2023/01/26 01:33:52;;;;;;;0.77;0.77;;;;;;;-0.81;100.00;100040.09;5112126;28;20345;-59
2023/01/26 01:36:19;;;;;;;2.07;1.90;;;;;;;-0.81;100.00;100042.59;5111909;28;20659;-59
2023/01/26 01:38:47;;;;;;;0.20;0.20;;;;;;;-0.85;100.00;100045.97;5111475;28;20729;-59
2023/01/26 01:41:15;;;;;;;1.50;1.40;;;;;;;-0.77;100.00;100039.19;5112049;28;20193;-59
2023/01/26 01:43:42;;;;;;;1.13;0.77;;;;;;;-0.82;100.00;100030.88;5112002;28;20217;-58
2023/01/26 01:46:18;;;;;;;1.40;1.10;;;;;;;-0.78;100.00;100047.59;5111800;28;20209;-57
2023/01/26 01:48:52;;;;;;;1.70;1.60;;;;;;;-0.72;100.00;100042.50;5111960;28;20227;-58
2023/01/26 01:51:27;;;;;;;2.47;1.07;;;;;;;-0.88;100.00;100043.50;5111724;28;20244;-59
2023/01/26 01:53:57;;;;;;;1.93;1.07;;;;;;;-0.88;100.00;100040.97;5111719;28;20208;-58
2023/01/26 01:56:28;;;;;;;0.50;0.50;;;;;;;-0.72;100.00;100034.97;5111580;28;20197;-58
2023/01/26 01:58:59;;;;;;;1.27;1.17;;;;;;;-0.70;100.00;100030.78;5111829;28;20691;-57
2023/01/26 02:01:28;;;;;;;1.13;1.13;;;;;;;-0.64;100.00;100029.00;5111728;28;20564;-58
2023/01/26 02:03:58;;;;;;;0.90;0.90;;;;;;;-0.58;100.00;100044.00;5111590;28;20601;-58
2023/01/26 02:06:30;;;;;;;0.93;0.70;;;;;;;-0.62;100.00;100042.38;5111291;28;20194;-58
2023/01/26 02:08:58;;;;;;;0.50;0.50;;;;;;;-0.54;100.00;100035.59;5111398;28;20209;-58
2023/01/26 02:11:28;;;;;;;1.23;1.13;;;;;;;-0.64;100.00;100024.00;5111064;28;20229;-57
2023/01/26 02:13:57;;;;;;;1.53;1.43;;;;;;;-0.72;100.00;100007.34;5111169;28;20217;-57
2023/01/26 02:16:24;;;;;;;0.80;0.80;;;;;;;-0.74;100.00;99999.00;5111051;28;20197;-58
2023/01/26 02:18:52;;;;;;;1.70;1.60;;;;;;;-0.73;100.00;99995.66;5111370;28;20742;-59
2023/01/26 02:21:23;;;;;;;0.40;0.40;;;;;;;-0.70;100.00;99988.06;5110849;28;20194;-59
2023/01/26 02:23:58;;;;;;;1.33;1.23;;;;;;;-0.66;100.00;99985.53;5111145;28;20228;-59
2023/01/26 02:26:28;;;;;;;2.47;1.37;;;;;;;-0.59;100.00;99987.09;5110862;28;20197;-57
2023/01/26 02:28:56;;;;;;;0.70;0.70;;;;;;;-0.72;100.00;99976.38;5111126;28;20228;-59
2023/01/26 02:31:23;;;;;;;1.73;0.80;;;;;;;-0.82;100.00;99960.56;5110890;28;20625;-57
2023/01/26 02:33:50;;;;;;;2.57;2.03;;;;;;;-0.91;100.00;99960.69;5110829;28;20705;-59
2023/01/26 02:36:21;;;;;;;8.07;1.43;;;;;;;-0.83;100.00;99958.94;5110944;28;20302;-59
2023/01/26 02:38:55;;;;;;;2.00;0.80;;;;;;;-0.82;100.00;99955.56;5110901;28;20604;-58
2023/01/26 02:44:12;;;;;;;4.90;1.17;;;;;;;-0.82;100.00;99958.06;5110688;28;20220;-58
2023/01/26 02:46:38;;;;;;;1.10;1.10;;;;;;;-0.89;100.00;99955.66;5111231;28;20197;-57
2023/01/26 02:51:50;;;;;;;0.53;0.50;;;;;;;-0.87;100.00;99957.31;5110603;28;20743;-58
2023/01/26 02:56:57;;;;;;;2.50;2.27;;;;;;;-0.96;100.00;99949.88;5110274;28;20595;-59
2023/01/26 02:59:25;;;;;;;0.57;0.57;;;;;;;-1.02;100.00;99933.22;5110376;28;20240;-58
2023/01/26 03:01:55;;;;;;;0.53;0.53;;;;;;;-0.90;100.00;99939.78;5110374;28;20201;-59
2023/01/26 03:04:22;;;;;;;2.77;1.50;;;;;;;-0.89;100.00;99933.91;5110418;28;20228;-58
2023/01/26 03:06:49;;;;;;;1.50;0.63;;;;;;;-0.87;100.00;99937.22;5110153;28;20201;-59
2023/01/26 03:09:16;;;;;;;1.87;1.20;;;;;;;-0.92;100.00;99943.97;5110299;28;20220;-59
2023/01/26 03:11:42;;;;;;;1.43;1.33;;;;;;;-0.90;100.00;99942.28;5110363;28;20224;-58
2023/01/26 03:14:10;;;;;;;2.03;1.90;;;;;;;-0.92;100.00;99933.94;5110484;28;20326;-59
2023/01/26 03:16:38;;;;;;;2.43;1.30;;;;;;;-0.95;100.00;99928.97;5110321;28;20197;-59
2023/01/26 03:27:28;;;;;;;2.17;1.93;;;;;;;-0.84;100.00;99921.28;5110009;28;20242;-59
2023/01/26 03:29:55;;;;;;;1.47;1.37;;;;;;;-0.83;100.00;99922.97;5109890;28;20233;-59
2023/01/26 03:32:25;;;;;;;0.83;0.83;;;;;;;-0.85;100.00;99920.44;5109987;28;20677;-60
2023/01/26 03:34:52;;;;;;;2.50;1.30;;;;;;;-0.93;100.00;99915.53;5110165;28;20708;-59
2023/01/26 03:37:21;;;;;;;3.77;1.67;;;;;;;-0.97;100.00;99905.53;5110392;28;20201;-57
2023/01/26 03:56:23;;;;;;;1.57;1.47;;;;;;;-1.05;100.00;99872.19;5109951;28;20197;-59
2023/01/26 03:58:52;;;;;;;3.20;1.60;;;;;;;-1.09;100.00;99875.59;5110004;28;20213;-59
2023/01/26 04:01:20;;;;;;;1.30;1.27;;;;;;;-1.04;100.00;99867.16;5112194;28;20201;-58
2023/01/26 04:09:21;;;;;;;1.80;1.70;;;;;;;-1.05;100.00;99867.97;5113858;28;20603;-57
2023/01/26 04:11:48;;;;;;;1.57;1.47;;;;;;;-1.05;100.00;99857.94;5113407;28;20233;-58
2023/01/26 04:22:39;;;;;;;1.50;0.90;;;;;;;-1.21;100.00;99832.22;5113944;28;20204;-59
2023/01/26 04:25:07;;;;;;;0.87;0.77;;;;;;;-1.23;100.00;99833.91;5113987;28;20486;-58
2023/01/26 04:27:34;;;;;;;1.33;0.97;;;;;;;-1.30;100.00;99839.03;5113168;28;20337;-59
2023/01/26 04:30:02;;;;;;;0.67;0.67;;;;;;;-1.21;100.00;99837.25;5113181;28;20224;-59
2023/01/26 04:32:29;;;;;;;1.10;1.10;;;;;;;-1.24;100.00;99837.28;5113166;28;20212;-58
2023/01/26 04:34:57;;;;;;;1.70;1.60;;;;;;;-1.31;100.00;99829.84;5113462;28;20224;-58
2023/01/26 04:37:24;;;;;;;1.77;1.60;;;;;;;-1.21;100.00;99831.41;5113050;28;20201;-58
2023/01/26 04:39:51;;;;;;;1.33;1.10;;;;;;;-1.27;100.00;99826.47;5113537;28;20217;-58
2023/01/26 04:42:18;;;;;;;0.60;0.60;;;;;;;-1.19;100.00;99820.50;5112836;28;20208;-59
2023/01/26 04:44:45;;;;;;;1.50;1.40;;;;;;;-1.32;100.00;99824.00;5112821;28;20229;-58
2023/01/26 04:47:11;;;;;;;1.37;1.27;;;;;;;-1.27;100.00;99827.28;5112854;28;20193;-59
2023/01/26 04:49:38;;;;;;;2.60;1.37;;;;;;;-1.27;100.00;99826.47;5112908;28;20240;-57
2023/01/26 04:52:07;;;;;;;2.77;1.77;;;;;;;-1.31;100.00;99820.66;5113146;28;20236;-58
2023/01/26 04:54:33;;;;;;;2.80;2.60;;;;;;;-1.26;100.00;99821.41;5112720;28;20232;-57
2023/01/26 04:57:00;;;;;;;2.00;1.90;;;;;;;-1.29;100.00;99813.09;5112772;28;20193;-58
2023/01/26 04:59:27;;;;;;;9.30;1.07;;;;;;;-1.31;100.00;99815.66;5113043;28;20224;-59
2023/01/26 05:01:54;;;;;;;1.13;1.13;;;;;;;-1.21;100.00;99811.34;5112377;28;20201;-59
2023/01/26 05:04:21;;;;;;;2.33;1.83;;;;;;;-1.16;100.00;99812.94;5112528;28;20231;-58
2023/01/26 05:06:48;;;;;;;2.53;1.73;;;;;;;-1.24;100.00;99811.38;5112313;28;20202;-58
2023/01/26 05:09:16;;;;;;;0.93;0.93;;;;;;;-1.26;100.00;99806.34;5112677;28;20215;-58
2023/01/26 05:11:43;;;;;;;2.23;1.77;;;;;;;-1.26;100.00;99813.88;5112075;28;21030;-59
2023/01/26 05:14:10;;;;;;;2.10;1.60;;;;;;;-1.18;100.00;99807.09;5112835;28;20224;-59
2023/01/26 05:16:36;;;;;;;2.00;1.33;;;;;;;-1.24;100.00;99807.19;5112546;28;20201;-58
2023/01/26 05:19:03;;;;;;;2.40;1.33;;;;;;;-1.26;100.00;99803.84;5112511;27;20217;-59
2023/01/26 05:21:30;;;;;;;2.67;1.00;;;;;;;-1.15;100.00;99792.00;5111992;28;20209;-59
2023/01/26 05:23:57;;;;;;;1.30;1.20;;;;;;;-1.24;100.00;99789.63;5112395;28;20228;-59
2023/01/26 05:26:25;;;;;;;2.13;1.57;;;;;;;-1.31;100.00;99780.53;5112503;28;20228;-58
2023/01/26 05:28:52;;;;;;;2.20;0.87;;;;;;;-1.16;100.00;99782.00;5112148;28;20225;-58
2023/01/26 05:31:19;;;;;;;0.90;0.87;;;;;;;-1.20;100.00;99778.69;5111936;28;20232;-59
2023/01/26 05:33:46;;;;;;;1.20;1.20;;;;;;;-1.22;100.00;99780.41;5112208;28;20217;-58
2023/01/26 05:36:12;;;;;;;1.23;1.07;;;;;;;-1.24;100.00;99777.06;5112039;28;20200;-59
2023/01/26 05:38:39;;;;;;;2.07;1.83;;;;;;;-1.16;100.00;99776.97;5112238;28;20217;-59
2023/01/26 05:41:07;;;;;;;1.33;0.97;;;;;;;-1.20;100.00;99773.66;5111919;28;20201;-58
2023/01/26 05:43:36;;;;;;;1.73;1.63;;;;;;;-1.20;100.00;99766.13;5111864;28;20209;-58
2023/01/26 05:46:02;;;;;;;7.03;1.90;;;;;;;-1.15;100.00;99771.94;5111699;28;20213;-58
2023/01/26 05:48:29;;;;;;;2.10;2.00;;;;;;;-1.12;100.00;99772.75;5111791;28;20220;-58
2023/01/26 05:50:57;;;;;;;1.23;1.10;;;;;;;-1.12;100.00;99775.25;5111716;28;20708;-58
2023/01/26 05:53:24;;;;;;;1.87;0.93;;;;;;;-1.11;100.00;99774.41;5111709;28;20201;-59
2023/01/26 05:55:51;;;;;;;3.33;1.60;;;;;;;-1.18;100.00;99771.16;5111524;28;20207;-58
2023/01/26 05:58:18;;;;;;;1.40;1.37;;;;;;;-1.22;100.00;99767.84;5111765;28;20268;-59
2023/01/26 06:00:46;;;;;;;1.17;1.17;;;;;;;-1.19;100.00;99760.28;5111841;28;20295;-58
2023/01/26 06:03:13;;;;;;;2.17;1.30;;;;;;;-1.19;100.00;99752.75;5111278;28;20201;-59
2023/01/26 06:05:41;;;;;;;4.07;1.30;;;;;;;-1.26;100.00;99748.66;5111824;28;20194;-58
2023/01/26 06:08:07;;;;;;;1.43;1.33;;;;;;;-1.24;100.00;99752.00;5111548;28;20927;-59
2023/01/26 06:10:34;;;;;;;1.50;1.40;;;;;;;-1.17;100.00;99743.50;5111320;28;20246;-59
2023/01/26 06:13:01;;;;;;;0.70;0.70;;;;;;;-1.09;100.00;99745.09;5110990;28;20206;-59
2023/01/26 06:15:28;;;;;;;2.63;2.43;;;;;;;-1.12;100.00;99740.13;5111229;28;20220;-59
2023/01/26 06:17:56;;;;;;;0.77;0.77;;;;;;;-1.15;100.00;99731.78;5111101;28;20201;-59
2023/01/26 06:20:23;;;;;;;2.47;2.27;;;;;;;-1.23;100.00;99740.28;5111153;28;20223;-59
2023/01/26 06:22:50;;;;;;;1.37;1.30;;;;;;;-1.21;100.00;99736.91;5110331;28;20201;-58
2023/01/26 06:25:17;;;;;;;1.20;1.20;;;;;;;-1.21;100.00;99731.88;5111579;28;20213;-57
2023/01/26 06:27:43;;;;;;;1.90;0.87;;;;;;;-1.07;100.00;99733.38;5110989;28;20212;-58
2023/01/26 06:30:11;;;;;;;1.90;1.40;;;;;;;-1.06;100.00;99730.81;5111059;28;20221;-59
2023/01/26 06:32:38;;;;;;;4.00;2.33;;;;;;;-1.12;100.00;99735.13;5110751;28;20229;-58
2023/01/26 06:35:08;;;;;;;1.87;1.47;;;;;;;-1.12;100.00;99730.09;5111226;28;20224;-59
2023/01/26 06:37:35;;;;;;;1.60;1.50;;;;;;;-1.15;100.00;99741.00;5110898;28;20197;-58
2023/01/26 06:40:02;;;;;;;2.23;1.70;;;;;;;-1.07;100.00;99743.41;5111008;28;20571;-58
2023/01/26 06:42:29;;;;;;;7.40;1.90;;;;;;;-1.04;100.00;99733.31;5110582;28;20189;-59
2023/01/26 06:44:57;;;;;;;1.10;1.03;;;;;;;-1.03;100.00;99734.97;5110599;28;20229;-58
2023/01/26 06:47:25;;;;;;;1.53;1.43;;;;;;;-1.05;100.00;99726.63;5110412;28;20197;-59
2023/01/26 06:49:52;;;;;;;0.77;0.67;;;;;;;-1.04;100.00;99733.31;5110988;28;20217;-58
2023/01/26 06:52:31;;;;;;;1.30;1.20;;;;;;;-1.14;100.00;99733.44;5110440;28;20235;-59
2023/01/26 06:55:00;;;;;;;6.23;2.13;;;;;;;-0.99;100.00;99731.56;5110477;28;20220;-59
2023/01/26 06:57:27;;;;;;;2.07;1.87;;;;;;;-1.04;100.00;99734.16;5110797;28;20193;-59
2023/01/26 06:59:56;;;;;;;1.60;1.23;;;;;;;-1.03;100.00;99732.47;5110290;28;20217;-57
2023/01/26 07:02:23;;;;;;;1.60;1.53;;;;;;;-0.96;100.00;99731.50;5110601;28;20201;-59
2023/01/26 07:04:50;;;;;;;0.80;0.80;;;;;;;-0.95;100.00;99728.16;5110631;28;20720;-58
2023/01/26 07:07:17;;;;;;;2.07;1.67;;;;;;;-0.94;100.00;99732.31;5110172;28;20194;-59
2023/01/26 07:09:45;;;;;;;1.23;1.03;;;;;;;-0.94;100.00;99729.81;5110209;28;20209;-59
2023/01/26 07:12:12;;;;;;;1.37;1.13;;;;;;;-1.04;100.00;99739.16;5110162;28;20713;-60
2023/01/26 07:14:39;;;;;;;1.77;1.20;;;;;;;-1.04;100.00;99738.34;5110535;28;20760;-58
2023/01/26 07:17:06;;;;;;;3.60;2.33;;;;;;;-0.93;100.00;99727.28;5110385;28;20193;-59
2023/01/26 07:19:33;;;;;;;1.37;1.33;;;;;;;-0.93;100.00;99726.47;5110773;28;20213;-58
2023/01/26 07:22:00;;;;;;;2.77;1.37;;;;;;;-0.93;100.00;99718.94;5109869;28;20197;-58
2023/01/26 07:24:27;;;;;;;1.87;1.67;;;;;;;-0.98;100.00;99720.69;5110609;28;20224;-59
2023/01/26 07:26:55;;;;;;;3.17;0.97;;;;;;;-1.00;100.00;99719.88;5110325;28;20189;-59
2023/01/26 07:29:22;;;;;;;2.47;1.37;;;;;;;-0.95;100.00;99718.13;5109998;28;20236;-59
2023/01/26 07:31:49;;;;;;;0.63;0.63;;;;;;;-0.82;100.00;99712.03;5110498;28;20225;-59
2023/01/26 07:34:16;;;;;;;2.33;1.87;;;;;;;-0.94;100.00;99719.78;5110000;28;20225;-59
2023/01/26 07:36:43;;;;;;;1.10;1.10;;;;;;;-0.93;100.00;99706.41;5113360;28;20205;-58
2023/01/26 07:39:10;;;;;;;2.43;2.13;;;;;;;-0.99;100.00;99712.34;5114477;28;20239;-57
2023/01/26 07:41:37;;;;;;;0.67;0.67;;;;;;;-0.97;100.00;99704.75;5114216;28;20197;-58
2023/01/26 07:44:09;;;;;;;0.87;0.87;;;;;;;-0.95;100.00;99708.09;5114204;28;20220;-60
2023/01/26 07:46:36;;;;;;;1.43;1.33;;;;;;;-0.86;100.00;99697.91;5114176;28;20186;-60
2023/01/26 07:49:03;;;;;;;3.10;1.00;;;;;;;-0.82;100.00;99694.47;5114351;28;20216;-58
2023/01/26 07:51:30;;;;;;;0.57;0.57;;;;;;;-0.91;100.00;99690.44;5113741;28;20229;-59
2023/01/26 07:53:57;;;;;;;3.00;2.27;;;;;;;-0.92;100.00;99683.75;5114067;28;20223;-58
2023/01/26 07:56:24;;;;;;;1.23;1.13;;;;;;;-0.86;100.00;99677.81;5114122;28;20586;-58
2023/01/26 07:58:52;;;;;;;1.17;1.17;;;;;;;-0.87;100.00;99676.16;5114230;28;20213;-59
2023/01/26 08:01:20;;;;;;;2.77;1.80;;;;;;;-0.86;100.00;99666.97;5113844;28;20205;-59
2023/01/26 08:03:50;;;;;;;1.73;1.53;;;;;;;-0.83;100.00;99677.78;5113768;28;20217;-58
2023/01/26 08:06:18;;;;;;;1.30;1.20;;;;;;;-0.85;100.00;99666.91;5113453;28;20283;-58
2023/01/26 08:08:49;;;;;;;1.10;1.07;;;;;;;-0.90;100.00;99661.16;5113817;28;20229;-58
2023/01/26 08:11:18;;;;;;;1.17;1.07;;;;;;;-0.81;100.00;99656.00;5113729;28;20225;-58
2023/01/26 08:13:45;;;;;;;2.07;1.90;;;;;;;-0.76;100.00;99659.22;5113443;28;20229;-59
2023/01/26 08:16:12;;;;;;;0.93;0.93;;;;;;;-0.79;100.00;99653.44;5113993;28;20201;-59
2023/01/26 08:18:42;;;;;;;1.90;1.43;;;;;;;-0.85;100.00;99649.34;5113570;28;20232;-59
2023/01/26 08:21:09;;;;;;;1.53;1.17;;;;;;;-0.86;100.00;99652.72;5113240;28;20201;-58
2023/01/26 08:23:36;;;;;;;4.00;1.10;;;;;;;-0.82;100.00;99649.28;5113468;28;20228;-58
2023/01/26 08:26:04;;;;;;;1.50;1.40;;;;;;;-0.78;100.00;99640.88;5113515;28;20205;-58
2023/01/26 08:28:30;;;;;;;4.83;2.60;;;;;;;-0.75;100.00;99633.28;5113121;27;20202;-58
2023/01/26 08:31:02;;;;;;;1.13;1.07;;;;;;;-0.68;100.00;99649.88;5113263;28;20677;-59
2023/01/26 08:33:31;;;;;;;1.43;1.07;;;;;;;-0.62;100.00;99641.41;5113494;28;20206;-58
2023/01/26 08:36:02;;;;;;;2.80;1.93;;;;;;;-0.70;100.00;99649.09;5112934;28;20197;-59
2023/01/26 08:38:31;;;;;;;3.60;2.10;;;;;;;-0.63;100.00;99641.47;5113087;28;20205;-59
2023/01/26 08:40:58;;;;;;;1.33;1.23;;;;;;;-0.74;100.00;99637.44;5113315;28;20197;-59
2023/01/26 08:43:25;;;;;;;0.90;0.90;;;;;;;-0.70;100.00;99634.03;5112959;28;20650;-59
2023/01/26 08:45:51;;;;;;;0.83;0.83;;;;;;;-0.70;100.00;99634.03;5112401;28;20279;-58
2023/01/26 08:48:18;;;;;;;1.00;1.00;;;;;;;-0.78;100.00;99630.00;5112837;28;20197;-58
2023/01/26 08:50:45;;;;;;;4.67;1.97;;;;;;;-0.65;100.00;99623.06;5112825;28;20662;-58
2023/01/26 08:53:14;;;;;;;5.83;2.30;;;;;;;-0.63;100.00;99623.88;5112678;28;20228;-59
2023/01/26 08:55:40;;;;;;;0.97;0.97;;;;;;;-0.72;100.00;99635.75;5113003;28;20205;-60
2023/01/26 08:58:07;;;;;;;3.40;0.40;;;;;;;-0.61;100.00;99632.19;5113007;28;20197;-59
2023/01/26 09:00:34;;;;;;;2.07;1.10;;;;;;;-0.71;100.00;99636.56;5112881;28;20209;-58
2023/01/26 09:03:02;;;;;;;2.87;1.90;;;;;;;-0.64;100.00;99632.25;5112500;28;20205;-58
2023/01/26 09:05:34;;;;;;;9.80;2.80;;;;;;;-0.56;100.00;99630.44;5112509;28;20217;-58
2023/01/26 09:08:01;;;;;;;0.67;0.67;;;;;;;-0.63;100.00;99638.94;5112546;28;20194;-59
2023/01/26 09:10:29;;;;;;;1.90;1.30;;;;;;;-0.65;100.00;99635.63;5112455;28;20220;-58
2023/01/26 09:12:57;;;;;;;0.40;0.40;;;;;;;-0.67;100.00;99630.63;5112354;28;20225;-57
2023/01/26 09:15:24;;;;;;;0.60;0.60;;;;;;;-0.68;100.00;99626.47;5112076;28;20698;-59
2023/01/26 09:17:53;;;;;;;1.93;1.63;;;;;;;-0.60;100.00;99624.66;5112164;28;20189;-60
2023/01/26 09:20:20;;;;;;;1.60;1.50;;;;;;;-0.69;100.00;99615.59;5112418;28;20217;-59
2023/01/26 09:22:47;;;;;;;1.43;1.33;;;;;;;-0.68;100.00;99616.41;5112163;28;20198;-59
2023/01/26 09:25:14;;;;;;;1.93;1.57;;;;;;;-0.50;100.00;99602.69;5112271;28;20233;-58
2023/01/26 09:27:43;;;;;;;2.53;1.23;;;;;;;-0.55;100.00;99601.97;5112310;28;20197;-58
2023/01/26 09:30:13;;;;;;;2.13;1.40;;;;;;;-0.55;100.00;99596.94;5112330;28;20315;-59
2023/01/26 09:32:40;;;;;;;0.93;0.93;;;;;;;-0.58;100.00;99586.94;5112017;27;20332;-60
2023/01/26 09:35:10;;;;;;;1.60;1.50;;;;;;;-0.47;100.00;99585.06;5112396;28;20220;-59
2023/01/26 09:37:37;;;;;;;2.07;1.97;;;;;;;-0.44;100.00;99585.00;5112033;28;20194;-58
2023/01/26 09:40:06;;;;;;;0.80;0.80;;;;;;;-0.44;100.00;99574.94;5112273;28;20240;-58
2023/01/26 09:42:44;;;;;;;2.00;1.87;;;;;;;-0.44;100.00;99564.91;5111729;28;20284;-60
2023/01/26 09:45:24;;;;;;;1.53;1.37;;;;;;;-0.55;100.00;99556.78;5112205;28;20224;-58
2023/01/26 09:48:08;;;;;;;1.97;1.87;;;;;;;-0.40;100.00;99561.50;5111589;28;20224;-60
2023/01/26 09:50:41;;;;;;;4.47;2.13;;;;;;;-0.42;100.00;99560.69;5111732;28;20213;-60
2023/01/26 09:53:14;;;;;;;3.30;1.70;;;;;;;-0.38;100.00;99549.69;5111863;28;20229;-58
2023/01/26 09:55:43;;;;;;;2.17;1.80;;;;;;;-0.36;100.00;99557.22;5112034;28;20181;-59
2023/01/26 09:58:17;;;;;;;1.60;1.17;;;;;;;-0.47;100.00;99544.88;5110905;28;20197;-60
2023/01/26 10:00:49;;;;;;;1.60;1.17;;;;;;;-0.31;100.00;99551.25;5112304;28;20212;-58
2023/01/26 10:03:23;;;;;;;2.63;2.33;;;;;;;-0.29;100.00;99554.56;5111663;28;20189;-60
2023/01/26 10:05:55;;;;;;;2.97;2.00;;;;;;;-0.37;100.00;99546.34;5111637;28;20201;-59
2023/01/26 10:08:23;;;;;;;2.27;1.87;;;;;;;-0.36;100.00;99548.00;5111391;28;20204;-58
2023/01/26 10:10:53;;;;;;;6.93;2.57;;;;;;;-0.35;100.00;99539.63;5111635;28;20244;-60
2023/01/26 10:13:22;;;;;;;1.80;1.63;;;;;;;-0.36;100.00;99530.41;5111129;28;20233;-58
2023/01/26 10:15:54;;;;;;;3.17;1.80;;;;;;;-0.28;100.00;99536.09;5111359;28;20204;-58
2023/01/26 10:18:26;;;;;;;1.03;1.03;;;;;;;-0.26;100.00;99533.56;5110913;28;20189;-58
2023/01/26 10:20:55;;;;;;;2.90;2.27;;;;;;;-0.28;100.00;99531.09;5111135;28;20189;-60
2023/01/26 10:23:25;;;;;;;1.33;0.77;;;;;;;-0.30;100.00;99525.25;5110882;28;20217;-58
2023/01/26 10:25:54;;;;;;;4.53;1.37;;;;;;;-0.35;100.00;99508.63;5111282;28;20220;-59
2023/01/26 10:28:27;;;;;;;2.03;1.83;;;;;;;-0.22;100.00;99504.19;5110674;28;20193;-60
2023/01/26 10:30:56;;;;;;;0.77;0.77;;;;;;;-0.25;100.00;99498.34;5111055;27;20351;-59
2023/01/26 10:33:26;;;;;;;3.83;2.17;;;;;;;-0.29;100.00;99478.34;5111140;28;20232;-58
2023/01/26 10:35:53;;;;;;;0.63;0.63;;;;;;;-0.12;100.00;99480.50;5111038;28;20197;-60
2023/01/26 10:38:28;;;;;;;1.40;1.13;;;;;;;-0.10;100.00;99476.25;5110754;28;20201;-60
2023/01/26 10:40:55;;;;;;;2.63;2.20;;;;;;;-0.04;100.00;99474.44;5110849;28;20461;-59
2023/01/26 10:43:22;;;;;;;2.77;0.87;;;;;;;-0.04;100.00;99461.84;5110733;28;20198;-59
2023/01/26 10:45:48;;;;;;;2.20;1.47;;;;;;;-0.03;100.00;99470.22;5110615;28;20201;-58
2023/01/26 10:48:20;;;;;;;2.97;1.50;;;;;;;0.00;100.00;99460.13;5110545;27;20197;-60
2023/01/26 10:50:47;;;;;;;0.73;0.73;;;;;;;0.01;100.00;99448.38;5110742;28;20198;-60
2023/01/26 10:53:17;;;;;;;0.80;0.80;;;;;;;0.00;100.00;99440.03;5110333;28;20220;-58
2023/01/26 10:55:59;;;;;;;1.40;1.30;;;;;;;0.17;100.00;99437.06;5111160;28;20741;-60
2023/01/26 10:58:53;;;;;;;2.57;1.33;;;;;;;0.13;100.00;99426.28;5110577;28;20202;-58
2023/01/26 11:01:26;;;;;;;2.67;2.23;;;;;;;0.09;100.00;99418.84;5096040;28;20553;-58
2023/01/26 11:04:06;;;;;;;3.10;2.13;;;;;;;0.05;100.00;99413.06;5110795;28;20225;-59
2023/01/26 11:06:34;;;;;;;1.63;1.53;;;;;;;0.08;100.00;99407.97;5110647;28;20355;-59
2023/01/26 11:09:17;;;;;;;1.43;1.33;;;;;;;0.14;100.00;99417.03;5110202;28;20228;-60
2023/01/26 11:11:55;;;;;;;0.70;0.70;;;;;;;0.10;100.00;99416.28;5110884;28;20185;-59
2023/01/26 11:14:22;;;;;;;1.77;1.23;;;;;;;0.14;100.00;99422.88;5110336;28;20227;-60
2023/01/26 11:16:56;;;;;;;1.50;1.40;;;;;;;0.08;100.00;99412.97;5110262;28;20287;-59
2023/01/26 11:19:41;;;;;;;1.23;1.13;;;;;;;0.09;100.00;99403.75;5110628;28;20612;-58
2023/01/26 11:22:11;;;;;;;1.10;1.00;;;;;;;0.01;100.00;99406.47;5110549;28;20574;-58
2023/01/26 11:24:46;;;;;;;2.57;1.33;;;;;;;0.15;100.00;99394.38;5110431;28;20221;-58
2023/01/26 11:27:36;;;;;;;3.93;2.27;;;;;;;0.20;100.00;99387.56;5110586;28;20300;-58
2023/01/26 11:30:30;;;;;;;0.87;0.87;;;;;;;0.23;100.00;99391.66;5110410;28;20213;-58
2023/01/26 11:33:03;;;;;;;2.20;1.57;;;;;;;0.21;100.00;99389.22;5107589;28;20241;-59
2023/01/26 11:35:45;;;;;;;1.83;1.60;;;;;;;0.27;100.00;99378.16;5110127;28;20731;-58
2023/01/26 11:38:43;;;;;;;1.60;1.37;;;;;;;0.48;100.00;99379.28;5110075;28;20200;-58
2023/01/26 11:41:28;;;;;;;0.97;0.97;;;;;;;0.37;100.00;99378.75;5047128;28;20203;-59
2023/01/26 11:44:17;;;;;;;3.73;1.70;;;;;;;0.41;100.00;99367.75;5103424;28;20221;-58
2023/01/26 11:47:05;;;;;;;1.43;1.33;;;;;;;0.50;100.00;99375.06;5110140;28;20594;-60
2023/01/26 11:49:53;;;;;;;1.73;1.57;;;;;;;0.39;100.00;99366.97;5110038;28;20225;-58
2023/01/26 11:52:35;;;;;;;1.67;1.47;;;;;;;0.49;100.00;99358.28;5109898;28;20197;-58
2023/01/26 11:55:19;;;;;;;2.17;1.47;;;;;;;0.37;100.00;99348.56;5110083;28;20281;-58
2023/01/26 11:58:02;;;;;;;4.73;2.43;;;;;;;0.53;100.00;99347.31;5110144;28;20584;-58
2023/01/26 12:00:39;;;;;;;3.70;2.60;;;;;;;0.47;100.00;99344.97;5110071;28;20217;-58
2023/01/26 12:03:15;;;;;;;2.43;1.77;;;;;;;0.51;100.00;99331.41;5110138;28;20200;-59
2023/01/26 12:05:48;;;;;;;6.73;2.20;;;;;;;0.47;100.00;99332.38;5110253;28;20189;-60
2023/01/26 12:08:23;;;;;;;6.30;2.40;;;;;;;0.60;100.00;99326.13;5109598;28;20193;-58
2023/01/26 12:11:21;;;;;;;0.60;0.60;;;;;;;0.45;100.00;99327.38;5110361;28;20193;-58
2023/01/26 12:13:55;;;;;;;1.10;0.93;;;;;;;0.39;100.00;99319.19;5109927;28;20744;-60
2023/01/26 12:16:36;;;;;;;1.00;0.90;;;;;;;0.45;100.00;99316.50;5109596;28;20203;-58
2023/01/26 12:19:15;;;;;;;2.77;2.57;;;;;;;0.46;100.00;99303.03;5110007;28;20221;-60
2023/01/26 12:21:45;;;;;;;1.83;1.73;;;;;;;0.47;100.00;99289.63;5111086;28;20189;-59
2023/01/26 12:24:19;;;;;;;1.33;1.30;;;;;;;0.44;100.00;99295.56;5113638;27;20244;-60